sensor_id;sensor_type;location;lat;lon;timestamp;P1;durP1;ratioP1;P2;durP2;ratioP2
67162;SDS011;54092;53.088;8.850;2023-04-15T00:01:54;12.02;;;6.90;;
67162;SDS011;54092;53.088;8.850;2023-04-15T00:04:22;17.98;;;10.27;;
67162;SDS011;54092;53.088;8.850;2023-04-15T00:06:51;18.05;;;10.60;;
67162;SDS011;54092;53.088;8.850;2023-04-15T00:09:17;20.13;;;10.40;;
67162;SDS011;54092;53.088;8.850;2023-04-15T00:11:43;16.05;;;9.60;;
67162;SDS011;54092;53.088;8.850;2023-04-15T00:14:10;17.30;;;9.10;;
67162;SDS011;54092;53.088;8.850;2023-04-15T00:16:36;23.27;;;13.80;;
67162;SDS011;54092;53.088;8.850;2023-04-15T00:19:02;23.90;;;13.32;;
67162;SDS011;54092;53.088;8.850;2023-04-15T00:21:27;36.75;;;18.00;;
67162;SDS011;54092;53.088;8.850;2023-04-15T00:23:53;56.80;;;28.63;;
67162;SDS011;54092;53.088;8.850;2023-04-15T00:26:19;33.30;;;18.67;;
67162;SDS011;54092;53.088;8.850;2023-04-15T00:28:44;16.90;;;8.82;;
67162;SDS011;54092;53.088;8.850;2023-04-15T00:31:10;20.60;;;10.63;;
67162;SDS011;54092;53.088;8.850;2023-04-15T00:33:36;29.33;;;13.70;;
67162;SDS011;54092;53.088;8.850;2023-04-15T00:36:01;31.55;;;16.17;;
67162;SDS011;54092;53.088;8.850;2023-04-15T00:38:28;28.90;;;14.75;;
67162;SDS011;54092;53.088;8.850;2023-04-15T00:40:54;17.55;;;10.23;;
67162;SDS011;54092;53.088;8.850;2023-04-15T00:43:20;16.02;;;8.75;;
67162;SDS011;54092;53.088;8.850;2023-04-15T00:45:46;17.05;;;9.30;;
67162;SDS011;54092;53.088;8.850;2023-04-15T00:48:11;16.88;;;9.95;;
67162;SDS011;54092;53.088;8.850;2023-04-15T00:50:37;13.50;;;7.82;;
67162;SDS011;54092;53.088;8.850;2023-04-15T00:53:03;18.33;;;9.82;;
67162;SDS011;54092;53.088;8.850;2023-04-15T00:55:28;19.50;;;10.82;;
67162;SDS011;54092;53.088;8.850;2023-04-15T00:57:54;21.70;;;10.98;;
67162;SDS011;54092;53.088;8.850;2023-04-15T01:00:21;17.27;;;8.93;;
67162;SDS011;54092;53.088;8.850;2023-04-15T01:02:46;16.15;;;9.73;;
67162;SDS011;54092;53.088;8.850;2023-04-15T01:05:12;21.73;;;11.57;;
67162;SDS011;54092;53.088;8.850;2023-04-15T01:07:41;24.90;;;10.52;;
67162;SDS011;54092;53.088;8.850;2023-04-15T01:10:07;24.20;;;11.30;;
67162;SDS011;54092;53.088;8.850;2023-04-15T01:12:33;19.58;;;9.38;;
67162;SDS011;54092;53.088;8.850;2023-04-15T01:14:59;18.67;;;9.65;;
67162;SDS011;54092;53.088;8.850;2023-04-15T01:17:26;16.98;;;8.75;;
67162;SDS011;54092;53.088;8.850;2023-04-15T01:19:52;19.40;;;10.07;;
67162;SDS011;54092;53.088;8.850;2023-04-15T01:22:20;15.43;;;8.50;;
67162;SDS011;54092;53.088;8.850;2023-04-15T01:24:48;17.05;;;8.10;;
67162;SDS011;54092;53.088;8.850;2023-04-15T01:27:20;16.13;;;8.25;;
67162;SDS011;54092;53.088;8.850;2023-04-15T01:29:46;15.23;;;7.07;;
67162;SDS011;54092;53.088;8.850;2023-04-15T01:32:12;16.75;;;8.48;;
67162;SDS011;54092;53.088;8.850;2023-04-15T01:34:37;18.33;;;9.15;;
67162;SDS011;54092;53.088;8.850;2023-04-15T01:37:03;17.90;;;8.07;;
67162;SDS011;54092;53.088;8.850;2023-04-15T01:39:28;17.25;;;8.25;;
67162;SDS011;54092;53.088;8.850;2023-04-15T01:41:54;16.98;;;8.52;;
67162;SDS011;54092;53.088;8.850;2023-04-15T01:44:19;14.77;;;7.65;;
67162;SDS011;54092;53.088;8.850;2023-04-15T01:46:45;19.00;;;7.93;;
67162;SDS011;54092;53.088;8.850;2023-04-15T01:49:12;16.42;;;9.02;;
67162;SDS011;54092;53.088;8.850;2023-04-15T01:51:37;16.30;;;8.05;;
67162;SDS011;54092;53.088;8.850;2023-04-15T01:54:03;16.58;;;7.57;;
67162;SDS011;54092;53.088;8.850;2023-04-15T01:56:28;16.13;;;8.60;;
67162;SDS011;54092;53.088;8.850;2023-04-15T01:58:54;17.40;;;7.93;;
67162;SDS011;54092;53.088;8.850;2023-04-15T02:01:19;16.75;;;7.55;;
67162;SDS011;54092;53.088;8.850;2023-04-15T02:03:46;16.23;;;8.48;;
67162;SDS011;54092;53.088;8.850;2023-04-15T02:06:11;15.82;;;7.95;;
67162;SDS011;54092;53.088;8.850;2023-04-15T02:08:37;16.30;;;7.60;;
67162;SDS011;54092;53.088;8.850;2023-04-15T02:11:03;16.92;;;8.95;;
67162;SDS011;54092;53.088;8.850;2023-04-15T02:13:28;17.58;;;7.20;;
67162;SDS011;54092;53.088;8.850;2023-04-15T02:15:54;15.68;;;8.80;;
67162;SDS011;54092;53.088;8.850;2023-04-15T02:18:20;17.73;;;8.65;;
67162;SDS011;54092;53.088;8.850;2023-04-15T02:20:45;15.80;;;7.70;;
67162;SDS011;54092;53.088;8.850;2023-04-15T02:23:12;15.57;;;7.90;;
67162;SDS011;54092;53.088;8.850;2023-04-15T02:25:37;15.20;;;7.95;;
67162;SDS011;54092;53.088;8.850;2023-04-15T02:28:04;16.65;;;7.82;;
67162;SDS011;54092;53.088;8.850;2023-04-15T02:30:30;17.75;;;7.75;;
67162;SDS011;54092;53.088;8.850;2023-04-15T02:32:56;13.30;;;7.10;;
67162;SDS011;54092;53.088;8.850;2023-04-15T02:35:21;16.92;;;8.00;;
67162;SDS011;54092;53.088;8.850;2023-04-15T02:37:49;19.38;;;7.95;;
67162;SDS011;54092;53.088;8.850;2023-04-15T02:40:15;15.00;;;8.05;;
67162;SDS011;54092;53.088;8.850;2023-04-15T02:42:41;16.00;;;8.25;;
67162;SDS011;54092;53.088;8.850;2023-04-15T02:45:08;16.75;;;7.75;;
67162;SDS011;54092;53.088;8.850;2023-04-15T02:47:36;15.93;;;7.68;;
67162;SDS011;54092;53.088;8.850;2023-04-15T02:50:04;15.93;;;7.72;;
67162;SDS011;54092;53.088;8.850;2023-04-15T02:52:31;13.75;;;7.00;;
67162;SDS011;54092;53.088;8.850;2023-04-15T02:54:57;15.52;;;8.02;;
67162;SDS011;54092;53.088;8.850;2023-04-15T02:57:26;17.25;;;7.22;;
67162;SDS011;54092;53.088;8.850;2023-04-15T02:59:55;14.05;;;7.65;;
67162;SDS011;54092;53.088;8.850;2023-04-15T03:02:20;17.65;;;7.18;;
67162;SDS011;54092;53.088;8.850;2023-04-15T03:04:46;14.02;;;7.65;;
67162;SDS011;54092;53.088;8.850;2023-04-15T03:07:11;16.50;;;8.27;;
67162;SDS011;54092;53.088;8.850;2023-04-15T03:09:37;16.85;;;7.88;;
67162;SDS011;54092;53.088;8.850;2023-04-15T03:12:05;16.08;;;7.95;;
67162;SDS011;54092;53.088;8.850;2023-04-15T03:14:31;16.55;;;8.30;;
67162;SDS011;54092;53.088;8.850;2023-04-15T03:16:56;17.00;;;8.98;;
67162;SDS011;54092;53.088;8.850;2023-04-15T03:19:23;16.48;;;8.48;;
67162;SDS011;54092;53.088;8.850;2023-04-15T03:21:49;18.42;;;8.85;;
67162;SDS011;54092;53.088;8.850;2023-04-15T03:24:14;17.27;;;8.82;;
67162;SDS011;54092;53.088;8.850;2023-04-15T03:26:40;21.80;;;10.15;;
67162;SDS011;54092;53.088;8.850;2023-04-15T03:29:05;19.63;;;9.27;;
67162;SDS011;54092;53.088;8.850;2023-04-15T03:31:31;21.95;;;10.75;;
67162;SDS011;54092;53.088;8.850;2023-04-15T03:33:56;17.83;;;9.27;;
67162;SDS011;54092;53.088;8.850;2023-04-15T03:36:21;19.83;;;9.38;;
67162;SDS011;54092;53.088;8.850;2023-04-15T03:38:47;20.77;;;9.63;;
67162;SDS011;54092;53.088;8.850;2023-04-15T03:41:14;19.20;;;9.48;;
67162;SDS011;54092;53.088;8.850;2023-04-15T03:43:39;19.33;;;9.38;;
67162;SDS011;54092;53.088;8.850;2023-04-15T03:46:05;18.95;;;8.52;;
67162;SDS011;54092;53.088;8.850;2023-04-15T03:48:30;19.48;;;9.25;;
67162;SDS011;54092;53.088;8.850;2023-04-15T03:50:56;17.42;;;8.23;;
67162;SDS011;54092;53.088;8.850;2023-04-15T03:53:21;17.17;;;8.90;;
67162;SDS011;54092;53.088;8.850;2023-04-15T03:55:47;17.35;;;8.73;;
67162;SDS011;54092;53.088;8.850;2023-04-15T03:58:12;18.42;;;8.75;;
67162;SDS011;54092;53.088;8.850;2023-04-15T04:00:38;17.35;;;9.18;;
67162;SDS011;54092;53.088;8.850;2023-04-15T04:03:05;18.45;;;8.30;;
67162;SDS011;54092;53.088;8.850;2023-04-15T04:05:31;18.63;;;9.30;;
67162;SDS011;54092;53.088;8.850;2023-04-15T04:07:56;19.95;;;9.70;;
67162;SDS011;54092;53.088;8.850;2023-04-15T04:10:22;16.90;;;8.85;;
67162;SDS011;54092;53.088;8.850;2023-04-15T04:12:47;19.30;;;9.15;;
67162;SDS011;54092;53.088;8.850;2023-04-15T04:15:13;15.23;;;7.60;;
67162;SDS011;54092;53.088;8.850;2023-04-15T04:17:38;16.15;;;8.07;;
67162;SDS011;54092;53.088;8.850;2023-04-15T04:20:04;20.90;;;9.10;;
67162;SDS011;54092;53.088;8.850;2023-04-15T04:22:30;18.13;;;8.27;;
67162;SDS011;54092;53.088;8.850;2023-04-15T04:25:01;19.38;;;9.55;;
67162;SDS011;54092;53.088;8.850;2023-04-15T04:27:26;17.45;;;9.40;;
67162;SDS011;54092;53.088;8.850;2023-04-15T04:29:52;21.73;;;10.75;;
67162;SDS011;54092;53.088;8.850;2023-04-15T04:32:17;20.55;;;9.98;;
67162;SDS011;54092;53.088;8.850;2023-04-15T04:34:43;20.73;;;9.43;;
67162;SDS011;54092;53.088;8.850;2023-04-15T04:37:08;24.23;;;10.55;;
67162;SDS011;54092;53.088;8.850;2023-04-15T04:39:34;20.23;;;9.95;;
67162;SDS011;54092;53.088;8.850;2023-04-15T04:41:59;21.30;;;9.63;;
67162;SDS011;54092;53.088;8.850;2023-04-15T04:44:25;22.75;;;10.82;;
67162;SDS011;54092;53.088;8.850;2023-04-15T04:46:51;24.42;;;11.13;;
67162;SDS011;54092;53.088;8.850;2023-04-15T04:49:16;24.88;;;11.80;;
67162;SDS011;54092;53.088;8.850;2023-04-15T04:51:42;25.23;;;11.95;;
67162;SDS011;54092;53.088;8.850;2023-04-15T04:54:07;23.63;;;10.90;;
67162;SDS011;54092;53.088;8.850;2023-04-15T04:56:33;24.98;;;11.15;;
67162;SDS011;54092;53.088;8.850;2023-04-15T04:58:59;25.90;;;11.20;;
67162;SDS011;54092;53.088;8.850;2023-04-15T05:01:25;25.27;;;12.43;;
67162;SDS011;54092;53.088;8.850;2023-04-15T05:03:51;24.17;;;11.68;;
67162;SDS011;54092;53.088;8.850;2023-04-15T05:06:17;26.45;;;11.55;;
67162;SDS011;54092;53.088;8.850;2023-04-15T05:08:42;25.58;;;11.30;;
67162;SDS011;54092;53.088;8.850;2023-04-15T05:11:08;28.60;;;12.07;;
67162;SDS011;54092;53.088;8.850;2023-04-15T05:13:33;26.55;;;11.88;;
67162;SDS011;54092;53.088;8.850;2023-04-15T05:16:02;24.67;;;11.30;;
67162;SDS011;54092;53.088;8.850;2023-04-15T05:18:31;26.23;;;11.90;;
67162;SDS011;54092;53.088;8.850;2023-04-15T05:20:57;28.98;;;12.73;;
67162;SDS011;54092;53.088;8.850;2023-04-15T05:23:23;22.85;;;11.13;;
67162;SDS011;54092;53.088;8.850;2023-04-15T05:25:48;26.67;;;12.45;;
67162;SDS011;54092;53.088;8.850;2023-04-15T05:28:14;27.65;;;11.93;;
67162;SDS011;54092;53.088;8.850;2023-04-15T05:30:39;25.90;;;12.82;;
67162;SDS011;54092;53.088;8.850;2023-04-15T05:33:05;27.45;;;12.98;;
67162;SDS011;54092;53.088;8.850;2023-04-15T05:35:30;25.15;;;12.18;;
67162;SDS011;54092;53.088;8.850;2023-04-15T05:37:56;26.70;;;12.98;;
67162;SDS011;54092;53.088;8.850;2023-04-15T05:40:21;26.92;;;12.02;;
67162;SDS011;54092;53.088;8.850;2023-04-15T05:42:47;26.80;;;12.30;;
67162;SDS011;54092;53.088;8.850;2023-04-15T05:45:13;26.02;;;11.93;;
67162;SDS011;54092;53.088;8.850;2023-04-15T05:47:38;26.25;;;11.70;;
67162;SDS011;54092;53.088;8.850;2023-04-15T05:50:04;26.15;;;11.23;;
67162;SDS011;54092;53.088;8.850;2023-04-15T05:52:30;24.13;;;10.95;;
67162;SDS011;54092;53.088;8.850;2023-04-15T05:54:56;24.27;;;11.75;;
67162;SDS011;54092;53.088;8.850;2023-04-15T05:57:21;24.73;;;10.88;;
67162;SDS011;54092;53.088;8.850;2023-04-15T05:59:47;25.67;;;11.35;;
67162;SDS011;54092;53.088;8.850;2023-04-15T06:02:13;28.08;;;12.35;;
67162;SDS011;54092;53.088;8.850;2023-04-15T06:04:39;24.58;;;11.55;;
67162;SDS011;54092;53.088;8.850;2023-04-15T06:07:04;26.58;;;11.57;;
67162;SDS011;54092;53.088;8.850;2023-04-15T06:09:30;25.13;;;11.63;;
67162;SDS011;54092;53.088;8.850;2023-04-15T06:11:55;25.88;;;11.45;;
67162;SDS011;54092;53.088;8.850;2023-04-15T06:14:21;24.98;;;12.30;;
67162;SDS011;54092;53.088;8.850;2023-04-15T06:16:47;24.55;;;11.65;;
67162;SDS011;54092;53.088;8.850;2023-04-15T06:19:13;24.48;;;12.57;;
67162;SDS011;54092;53.088;8.850;2023-04-15T06:21:38;27.10;;;13.00;;
67162;SDS011;54092;53.088;8.850;2023-04-15T06:24:04;22.52;;;10.85;;
67162;SDS011;54092;53.088;8.850;2023-04-15T06:26:30;26.27;;;11.90;;
67162;SDS011;54092;53.088;8.850;2023-04-15T06:28:56;24.38;;;11.25;;
67162;SDS011;54092;53.088;8.850;2023-04-15T06:31:21;22.15;;;11.45;;
67162;SDS011;54092;53.088;8.850;2023-04-15T06:33:47;26.25;;;11.68;;
67162;SDS011;54092;53.088;8.850;2023-04-15T06:36:12;23.52;;;10.55;;
67162;SDS011;54092;53.088;8.850;2023-04-15T06:38:38;22.73;;;11.38;;
67162;SDS011;54092;53.088;8.850;2023-04-15T06:41:03;22.83;;;11.15;;
67162;SDS011;54092;53.088;8.850;2023-04-15T06:43:29;21.65;;;11.68;;
67162;SDS011;54092;53.088;8.850;2023-04-15T06:45:55;23.58;;;11.48;;
67162;SDS011;54092;53.088;8.850;2023-04-15T06:48:21;21.98;;;10.13;;
67162;SDS011;54092;53.088;8.850;2023-04-15T06:50:47;23.65;;;10.70;;
67162;SDS011;54092;53.088;8.850;2023-04-15T06:53:13;24.80;;;11.38;;
67162;SDS011;54092;53.088;8.850;2023-04-15T06:55:39;25.08;;;11.82;;
67162;SDS011;54092;53.088;8.850;2023-04-15T06:58:05;26.05;;;11.27;;
67162;SDS011;54092;53.088;8.850;2023-04-15T07:00:31;25.17;;;11.65;;
67162;SDS011;54092;53.088;8.850;2023-04-15T07:02:57;24.00;;;11.48;;
67162;SDS011;54092;53.088;8.850;2023-04-15T07:07:56;21.48;;;10.15;;
67162;SDS011;54092;53.088;8.850;2023-04-15T07:10:22;24.58;;;11.52;;
67162;SDS011;54092;53.088;8.850;2023-04-15T07:12:47;28.42;;;11.73;;
67162;SDS011;54092;53.088;8.850;2023-04-15T07:15:14;25.67;;;11.02;;
67162;SDS011;54092;53.088;8.850;2023-04-15T07:17:40;21.13;;;10.20;;
67162;SDS011;54092;53.088;8.850;2023-04-15T07:20:07;22.63;;;10.82;;
67162;SDS011;54092;53.088;8.850;2023-04-15T07:22:33;23.73;;;11.23;;
67162;SDS011;54092;53.088;8.850;2023-04-15T07:24:58;21.85;;;11.13;;
67162;SDS011;54092;53.088;8.850;2023-04-15T07:27:24;24.23;;;11.73;;
67162;SDS011;54092;53.088;8.850;2023-04-15T07:29:50;23.80;;;11.40;;
67162;SDS011;54092;53.088;8.850;2023-04-15T07:32:16;22.13;;;11.02;;
67162;SDS011;54092;53.088;8.850;2023-04-15T07:34:41;20.95;;;11.23;;
67162;SDS011;54092;53.088;8.850;2023-04-15T07:37:08;24.00;;;12.07;;
67162;SDS011;54092;53.088;8.850;2023-04-15T07:39:33;21.95;;;11.02;;
67162;SDS011;54092;53.088;8.850;2023-04-15T07:41:59;23.60;;;11.35;;
67162;SDS011;54092;53.088;8.850;2023-04-15T07:44:25;22.88;;;11.13;;
67162;SDS011;54092;53.088;8.850;2023-04-15T07:46:51;24.10;;;11.15;;
67162;SDS011;54092;53.088;8.850;2023-04-15T07:49:16;24.33;;;11.50;;
67162;SDS011;54092;53.088;8.850;2023-04-15T07:51:43;21.65;;;10.52;;
67162;SDS011;54092;53.088;8.850;2023-04-15T07:54:09;22.65;;;12.23;;
67162;SDS011;54092;53.088;8.850;2023-04-15T07:56:34;22.40;;;10.90;;
67162;SDS011;54092;53.088;8.850;2023-04-15T07:59:00;23.77;;;10.63;;
67162;SDS011;54092;53.088;8.850;2023-04-15T08:01:30;21.77;;;10.90;;
67162;SDS011;54092;53.088;8.850;2023-04-15T08:03:56;21.10;;;10.43;;
67162;SDS011;54092;53.088;8.850;2023-04-15T08:06:23;19.80;;;10.63;;
67162;SDS011;54092;53.088;8.850;2023-04-15T08:08:48;19.98;;;9.75;;
67162;SDS011;54092;53.088;8.850;2023-04-15T08:11:14;21.08;;;10.20;;
67162;SDS011;54092;53.088;8.850;2023-04-15T08:13:40;17.33;;;9.52;;
67162;SDS011;54092;53.088;8.850;2023-04-15T08:18:40;19.38;;;9.88;;
67162;SDS011;54092;53.088;8.850;2023-04-15T08:21:06;17.30;;;9.18;;
67162;SDS011;54092;53.088;8.850;2023-04-15T08:23:31;18.65;;;9.73;;
67162;SDS011;54092;53.088;8.850;2023-04-15T08:25:57;17.13;;;8.70;;
67162;SDS011;54092;53.088;8.850;2023-04-15T08:28:23;17.13;;;9.07;;
67162;SDS011;54092;53.088;8.850;2023-04-15T08:30:48;15.50;;;8.65;;
67162;SDS011;54092;53.088;8.850;2023-04-15T08:33:14;16.25;;;8.90;;
67162;SDS011;54092;53.088;8.850;2023-04-15T08:35:40;17.85;;;9.20;;
67162;SDS011;54092;53.088;8.850;2023-04-15T08:38:06;16.23;;;9.07;;
67162;SDS011;54092;53.088;8.850;2023-04-15T08:40:34;16.92;;;8.45;;
67162;SDS011;54092;53.088;8.850;2023-04-15T08:43:12;17.02;;;8.85;;
67162;SDS011;54092;53.088;8.850;2023-04-15T08:45:44;15.25;;;7.97;;
67162;SDS011;54092;53.088;8.850;2023-04-15T08:48:12;15.15;;;8.25;;
67162;SDS011;54092;53.088;8.850;2023-04-15T08:50:42;17.65;;;8.45;;
67162;SDS011;54092;53.088;8.850;2023-04-15T08:53:08;16.05;;;8.82;;
67162;SDS011;54092;53.088;8.850;2023-04-15T08:55:35;16.60;;;9.15;;
67162;SDS011;54092;53.088;8.850;2023-04-15T08:58:03;15.88;;;8.52;;
67162;SDS011;54092;53.088;8.850;2023-04-15T09:00:29;17.17;;;9.27;;
67162;SDS011;54092;53.088;8.850;2023-04-15T09:02:55;15.23;;;8.25;;
67162;SDS011;54092;53.088;8.850;2023-04-15T09:05:22;17.13;;;8.90;;
67162;SDS011;54092;53.088;8.850;2023-04-15T09:07:49;16.00;;;8.23;;
67162;SDS011;54092;53.088;8.850;2023-04-15T09:10:15;15.25;;;7.90;;
67162;SDS011;54092;53.088;8.850;2023-04-15T09:12:41;17.88;;;8.90;;
67162;SDS011;54092;53.088;8.850;2023-04-15T09:15:06;15.95;;;8.82;;
67162;SDS011;54092;53.088;8.850;2023-04-15T09:17:36;14.15;;;8.07;;
67162;SDS011;54092;53.088;8.850;2023-04-15T09:20:10;15.73;;;8.45;;
67162;SDS011;54092;53.088;8.850;2023-04-15T09:22:41;14.68;;;7.88;;
67162;SDS011;54092;53.088;8.850;2023-04-15T09:30:14;15.00;;;8.20;;
67162;SDS011;54092;53.088;8.850;2023-04-15T09:32:50;12.38;;;7.35;;
67162;SDS011;54092;53.088;8.850;2023-04-15T09:35:27;13.50;;;8.23;;
67162;SDS011;54092;53.088;8.850;2023-04-15T09:37:53;15.48;;;8.45;;
67162;SDS011;54092;53.088;8.850;2023-04-15T09:40:36;14.55;;;7.97;;
67162;SDS011;54092;53.088;8.850;2023-04-15T09:43:04;15.20;;;8.40;;
67162;SDS011;54092;53.088;8.850;2023-04-15T09:45:31;14.48;;;7.28;;
67162;SDS011;54092;53.088;8.850;2023-04-15T09:47:58;14.27;;;7.70;;
67162;SDS011;54092;53.088;8.850;2023-04-15T09:50:39;14.77;;;8.00;;
67162;SDS011;54092;53.088;8.850;2023-04-15T09:53:08;15.00;;;7.07;;
67162;SDS011;54092;53.088;8.850;2023-04-15T09:55:38;15.20;;;7.97;;
67162;SDS011;54092;53.088;8.850;2023-04-15T09:58:16;14.38;;;7.63;;
67162;SDS011;54092;53.088;8.850;2023-04-15T10:00:43;12.82;;;6.82;;
67162;SDS011;54092;53.088;8.850;2023-04-15T10:03:10;12.10;;;6.93;;
67162;SDS011;54092;53.088;8.850;2023-04-15T10:05:37;15.02;;;7.53;;
67162;SDS011;54092;53.088;8.850;2023-04-15T10:08:03;12.35;;;6.85;;
67162;SDS011;54092;53.088;8.850;2023-04-15T10:10:29;13.20;;;7.45;;
67162;SDS011;54092;53.088;8.850;2023-04-15T10:12:57;12.75;;;7.38;;
67162;SDS011;54092;53.088;8.850;2023-04-15T10:15:23;14.63;;;8.10;;
67162;SDS011;54092;53.088;8.850;2023-04-15T10:17:49;14.10;;;8.43;;
67162;SDS011;54092;53.088;8.850;2023-04-15T10:20:17;14.35;;;8.13;;
67162;SDS011;54092;53.088;8.850;2023-04-15T10:22:43;16.05;;;8.60;;
67162;SDS011;54092;53.088;8.850;2023-04-15T10:25:10;18.95;;;9.43;;
67162;SDS011;54092;53.088;8.850;2023-04-15T10:27:37;17.17;;;9.02;;
67162;SDS011;54092;53.088;8.850;2023-04-15T10:30:04;15.98;;;8.23;;
67162;SDS011;54092;53.088;8.850;2023-04-15T10:32:30;14.82;;;8.70;;
67162;SDS011;54092;53.088;8.850;2023-04-15T10:34:56;18.88;;;9.65;;
67162;SDS011;54092;53.088;8.850;2023-04-15T10:37:33;14.40;;;8.05;;
67162;SDS011;54092;53.088;8.850;2023-04-15T10:40:00;17.35;;;9.45;;
67162;SDS011;54092;53.088;8.850;2023-04-15T10:42:50;17.40;;;9.25;;
67162;SDS011;54092;53.088;8.850;2023-04-15T10:45:15;19.63;;;10.10;;
67162;SDS011;54092;53.088;8.850;2023-04-15T10:47:42;17.40;;;8.88;;
67162;SDS011;54092;53.088;8.850;2023-04-15T10:50:08;18.02;;;9.68;;
67162;SDS011;54092;53.088;8.850;2023-04-15T10:52:33;15.70;;;8.43;;
67162;SDS011;54092;53.088;8.850;2023-04-15T10:55:03;19.25;;;9.25;;
67162;SDS011;54092;53.088;8.850;2023-04-15T10:57:40;18.42;;;9.25;;
67162;SDS011;54092;53.088;8.850;2023-04-15T11:02:39;17.10;;;9.35;;
67162;SDS011;54092;53.088;8.850;2023-04-15T11:05:06;22.50;;;10.93;;
67162;SDS011;54092;53.088;8.850;2023-04-15T11:07:36;23.75;;;9.60;;
67162;SDS011;54092;53.088;8.850;2023-04-15T11:10:49;19.08;;;9.73;;
67162;SDS011;54092;53.088;8.850;2023-04-15T11:12:49;22.70;;;10.65;;
67162;SDS011;54092;53.088;8.850;2023-04-15T11:15:29;20.67;;;10.40;;
67162;SDS011;54092;53.088;8.850;2023-04-15T11:18:15;17.57;;;10.30;;
67162;SDS011;54092;53.088;8.850;2023-04-15T11:20:47;22.33;;;10.30;;
67162;SDS011;54092;53.088;8.850;2023-04-15T11:23:27;24.05;;;11.25;;
67162;SDS011;54092;53.088;8.850;2023-04-15T11:25:58;24.52;;;11.52;;
67162;SDS011;54092;53.088;8.850;2023-04-15T11:28:28;27.92;;;13.13;;
67162;SDS011;54092;53.088;8.850;2023-04-15T11:30:54;22.15;;;11.02;;
67162;SDS011;54092;53.088;8.850;2023-04-15T11:33:21;35.00;;;13.43;;
67162;SDS011;54092;53.088;8.850;2023-04-15T11:35:47;26.13;;;11.93;;
67162;SDS011;54092;53.088;8.850;2023-04-15T11:38:13;27.92;;;13.07;;
67162;SDS011;54092;53.088;8.850;2023-04-15T11:40:39;31.17;;;12.65;;
67162;SDS011;54092;53.088;8.850;2023-04-15T11:43:09;32.75;;;14.10;;
67162;SDS011;54092;53.088;8.850;2023-04-15T11:45:35;29.08;;;14.98;;
67162;SDS011;54092;53.088;8.850;2023-04-15T11:48:05;30.90;;;13.82;;
67162;SDS011;54092;53.088;8.850;2023-04-15T11:50:33;36.45;;;13.77;;
67162;SDS011;54092;53.088;8.850;2023-04-15T11:52:59;30.30;;;13.30;;
67162;SDS011;54092;53.088;8.850;2023-04-15T11:55:30;34.38;;;15.48;;
67162;SDS011;54092;53.088;8.850;2023-04-15T11:58:07;32.05;;;14.63;;
67162;SDS011;54092;53.088;8.850;2023-04-15T12:00:56;34.08;;;15.07;;
67162;SDS011;54092;53.088;8.850;2023-04-15T12:03:23;34.63;;;14.43;;
67162;SDS011;54092;53.088;8.850;2023-04-15T12:06:02;38.22;;;15.48;;
67162;SDS011;54092;53.088;8.850;2023-04-15T12:14:30;46.60;;;18.77;;
67162;SDS011;54092;53.088;8.850;2023-04-15T12:16:57;46.03;;;18.43;;
67162;SDS011;54092;53.088;8.850;2023-04-15T12:22:09;48.05;;;18.02;;
67162;SDS011;54092;53.088;8.850;2023-04-15T12:24:40;48.08;;;18.00;;
67162;SDS011;54092;53.088;8.850;2023-04-15T12:27:09;47.55;;;18.90;;
67162;SDS011;54092;53.088;8.850;2023-04-15T12:29:37;44.65;;;18.52;;
67162;SDS011;54092;53.088;8.850;2023-04-15T12:32:05;47.78;;;19.23;;
67162;SDS011;54092;53.088;8.850;2023-04-15T12:34:42;43.22;;;18.88;;
67162;SDS011;54092;53.088;8.850;2023-04-15T12:37:14;48.50;;;18.67;;
67162;SDS011;54092;53.088;8.850;2023-04-15T12:39:41;45.90;;;19.08;;
67162;SDS011;54092;53.088;8.850;2023-04-15T12:42:08;46.45;;;19.05;;
67162;SDS011;54092;53.088;8.850;2023-04-15T12:44:34;46.15;;;18.65;;
67162;SDS011;54092;53.088;8.850;2023-04-15T12:47:01;46.60;;;19.30;;
67162;SDS011;54092;53.088;8.850;2023-04-15T12:49:27;43.75;;;18.02;;
67162;SDS011;54092;53.088;8.850;2023-04-15T12:51:53;41.50;;;19.98;;
67162;SDS011;54092;53.088;8.850;2023-04-15T12:54:20;40.85;;;18.90;;
67162;SDS011;54092;53.088;8.850;2023-04-15T12:56:46;42.03;;;17.60;;
67162;SDS011;54092;53.088;8.850;2023-04-15T12:59:13;41.65;;;18.65;;
67162;SDS011;54092;53.088;8.850;2023-04-15T13:01:39;41.75;;;17.92;;
67162;SDS011;54092;53.088;8.850;2023-04-15T13:04:05;42.65;;;18.20;;
67162;SDS011;54092;53.088;8.850;2023-04-15T13:06:31;42.40;;;19.00;;
67162;SDS011;54092;53.088;8.850;2023-04-15T13:08:59;45.58;;;18.98;;
67162;SDS011;54092;53.088;8.850;2023-04-15T13:11:26;41.42;;;19.10;;
67162;SDS011;54092;53.088;8.850;2023-04-15T13:13:54;41.92;;;17.48;;
67162;SDS011;54092;53.088;8.850;2023-04-15T13:16:28;41.30;;;19.40;;
67162;SDS011;54092;53.088;8.850;2023-04-15T13:18:54;45.58;;;18.25;;
67162;SDS011;54092;53.088;8.850;2023-04-15T13:21:19;43.42;;;19.55;;
67162;SDS011;54092;53.088;8.850;2023-04-15T13:23:45;43.25;;;19.65;;
67162;SDS011;54092;53.088;8.850;2023-04-15T13:26:11;41.83;;;19.38;;
67162;SDS011;54092;53.088;8.850;2023-04-15T13:28:37;36.55;;;18.08;;
67162;SDS011;54092;53.088;8.850;2023-04-15T13:31:04;40.72;;;19.85;;
67162;SDS011;54092;53.088;8.850;2023-04-15T13:33:29;36.67;;;17.70;;
67162;SDS011;54092;53.088;8.850;2023-04-15T13:35:55;36.45;;;18.33;;
67162;SDS011;54092;53.088;8.850;2023-04-15T13:38:21;36.60;;;18.05;;
67162;SDS011;54092;53.088;8.850;2023-04-15T13:40:48;35.22;;;17.10;;
67162;SDS011;54092;53.088;8.850;2023-04-15T13:43:13;34.50;;;17.15;;
67162;SDS011;54092;53.088;8.850;2023-04-15T13:45:39;35.05;;;17.75;;
67162;SDS011;54092;53.088;8.850;2023-04-15T13:48:05;35.33;;;17.80;;
67162;SDS011;54092;53.088;8.850;2023-04-15T13:50:30;34.42;;;16.40;;
67162;SDS011;54092;53.088;8.850;2023-04-15T13:52:56;39.38;;;18.10;;
67162;SDS011;54092;53.088;8.850;2023-04-15T13:55:21;39.22;;;18.83;;
67162;SDS011;54092;53.088;8.850;2023-04-15T13:57:47;43.45;;;20.08;;
67162;SDS011;54092;53.088;8.850;2023-04-15T14:00:14;37.95;;;19.38;;
67162;SDS011;54092;53.088;8.850;2023-04-15T14:02:40;36.47;;;19.15;;
67162;SDS011;54092;53.088;8.850;2023-04-15T14:05:06;36.40;;;19.30;;
67162;SDS011;54092;53.088;8.850;2023-04-15T14:07:32;37.03;;;19.73;;
67162;SDS011;54092;53.088;8.850;2023-04-15T14:09:58;37.60;;;19.08;;
67162;SDS011;54092;53.088;8.850;2023-04-15T14:12:24;33.30;;;17.65;;
67162;SDS011;54092;53.088;8.850;2023-04-15T14:14:49;35.58;;;18.15;;
67162;SDS011;54092;53.088;8.850;2023-04-15T14:17:15;42.53;;;20.38;;
67162;SDS011;54092;53.088;8.850;2023-04-15T14:19:40;34.65;;;19.02;;
67162;SDS011;54092;53.088;8.850;2023-04-15T14:22:06;34.40;;;18.73;;
67162;SDS011;54092;53.088;8.850;2023-04-15T14:24:31;35.45;;;18.73;;
67162;SDS011;54092;53.088;8.850;2023-04-15T14:26:57;35.75;;;19.48;;
67162;SDS011;54092;53.088;8.850;2023-04-15T14:29:23;33.67;;;17.30;;
67162;SDS011;54092;53.088;8.850;2023-04-15T14:31:48;32.42;;;18.60;;
67162;SDS011;54092;53.088;8.850;2023-04-15T14:34:14;31.40;;;18.55;;
67162;SDS011;54092;53.088;8.850;2023-04-15T14:36:40;32.10;;;18.42;;
67162;SDS011;54092;53.088;8.850;2023-04-15T14:39:06;29.92;;;17.45;;
67162;SDS011;54092;53.088;8.850;2023-04-15T14:41:32;34.63;;;19.02;;
67162;SDS011;54092;53.088;8.850;2023-04-15T14:43:58;31.60;;;17.92;;
67162;SDS011;54092;53.088;8.850;2023-04-15T14:46:24;35.70;;;19.25;;
67162;SDS011;54092;53.088;8.850;2023-04-15T14:48:50;34.15;;;17.63;;